sensor_id;sensor_type;location;lat;lon;timestamp;P1;durP1;ratioP1;P2;durP2;ratioP2
21110;SDS011;10713;51.912;4.494;2023-04-21T00:00:07;26.92;;;15.93;;
21110;SDS011;10713;51.912;4.494;2023-04-21T00:02:34;29.50;;;16.83;;
21110;SDS011;10713;51.912;4.494;2023-04-21T00:05:07;29.15;;;17.90;;
21110;SDS011;10713;51.912;4.494;2023-04-21T00:07:35;30.08;;;17.40;;
21110;SDS011;10713;51.912;4.494;2023-04-21T00:10:02;27.90;;;16.33;;
21110;SDS011;10713;51.912;4.494;2023-04-21T00:12:29;29.90;;;17.38;;
21110;SDS011;10713;51.912;4.494;2023-04-21T00:14:54;32.25;;;17.48;;
21110;SDS011;10713;51.912;4.494;2023-04-21T00:17:19;33.25;;;17.92;;
21110;SDS011;10713;51.912;4.494;2023-04-21T00:19:45;43.97;;;19.90;;
21110;SDS011;10713;51.912;4.494;2023-04-21T00:22:11;36.70;;;19.58;;
21110;SDS011;10713;51.912;4.494;2023-04-21T00:24:39;36.97;;;20.40;;
21110;SDS011;10713;51.912;4.494;2023-04-21T00:27:04;37.33;;;18.73;;
21110;SDS011;10713;51.912;4.494;2023-04-21T00:29:30;40.03;;;20.20;;
21110;SDS011;10713;51.912;4.494;2023-04-21T00:31:55;36.67;;;19.10;;
21110;SDS011;10713;51.912;4.494;2023-04-21T00:34:20;34.88;;;16.70;;
21110;SDS011;10713;51.912;4.494;2023-04-21T00:36:46;38.92;;;20.48;;
21110;SDS011;10713;51.912;4.494;2023-04-21T00:39:11;36.85;;;19.63;;
21110;SDS011;10713;51.912;4.494;2023-04-21T00:41:36;40.70;;;20.27;;
21110;SDS011;10713;51.912;4.494;2023-04-21T00:44:04;40.20;;;20.73;;
21110;SDS011;10713;51.912;4.494;2023-04-21T00:46:31;38.63;;;19.83;;
21110;SDS011;10713;51.912;4.494;2023-04-21T00:48:58;36.80;;;19.38;;
21110;SDS011;10713;51.912;4.494;2023-04-21T00:51:25;40.42;;;20.58;;
21110;SDS011;10713;51.912;4.494;2023-04-21T00:53:52;46.45;;;20.60;;
21110;SDS011;10713;51.912;4.494;2023-04-21T00:56:19;41.25;;;21.23;;
21110;SDS011;10713;51.912;4.494;2023-04-21T00:58:46;43.78;;;19.95;;
21110;SDS011;10713;51.912;4.494;2023-04-21T01:01:12;43.30;;;21.08;;
21110;SDS011;10713;51.912;4.494;2023-04-21T01:03:38;38.85;;;21.15;;
21110;SDS011;10713;51.912;4.494;2023-04-21T01:06:03;41.17;;;19.88;;
21110;SDS011;10713;51.912;4.494;2023-04-21T01:08:30;40.50;;;20.15;;
21110;SDS011;10713;51.912;4.494;2023-04-21T01:10:55;40.53;;;19.92;;
21110;SDS011;10713;51.912;4.494;2023-04-21T01:13:21;41.47;;;20.70;;
21110;SDS011;10713;51.912;4.494;2023-04-21T01:15:46;40.15;;;20.02;;
21110;SDS011;10713;51.912;4.494;2023-04-21T01:18:12;41.05;;;20.52;;
21110;SDS011;10713;51.912;4.494;2023-04-21T01:20:38;45.65;;;20.80;;
21110;SDS011;10713;51.912;4.494;2023-04-21T01:23:03;41.67;;;21.02;;
21110;SDS011;10713;51.912;4.494;2023-04-21T01:25:29;41.97;;;21.23;;
21110;SDS011;10713;51.912;4.494;2023-04-21T01:27:55;40.90;;;20.65;;
21110;SDS011;10713;51.912;4.494;2023-04-21T01:30:20;44.80;;;20.45;;
21110;SDS011;10713;51.912;4.494;2023-04-21T01:32:45;43.15;;;20.85;;
21110;SDS011;10713;51.912;4.494;2023-04-21T01:35:11;44.88;;;21.65;;
21110;SDS011;10713;51.912;4.494;2023-04-21T01:37:36;42.97;;;20.60;;
21110;SDS011;10713;51.912;4.494;2023-04-21T01:40:03;55.28;;;22.88;;
21110;SDS011;10713;51.912;4.494;2023-04-21T01:42:32;51.65;;;22.13;;
21110;SDS011;10713;51.912;4.494;2023-04-21T01:44:58;53.80;;;22.63;;
21110;SDS011;10713;51.912;4.494;2023-04-21T01:47:24;50.00;;;22.80;;
21110;SDS011;10713;51.912;4.494;2023-04-21T01:49:50;46.53;;;20.88;;
21110;SDS011;10713;51.912;4.494;2023-04-21T01:52:16;51.85;;;22.27;;
21110;SDS011;10713;51.912;4.494;2023-04-21T01:54:41;50.47;;;22.77;;
21110;SDS011;10713;51.912;4.494;2023-04-21T01:57:07;52.28;;;22.30;;
21110;SDS011;10713;51.912;4.494;2023-04-21T01:59:32;57.90;;;24.02;;
21110;SDS011;10713;51.912;4.494;2023-04-21T02:01:57;49.28;;;22.83;;
21110;SDS011;10713;51.912;4.494;2023-04-21T02:04:23;50.80;;;22.80;;
21110;SDS011;10713;51.912;4.494;2023-04-21T02:06:48;48.13;;;22.85;;
21110;SDS011;10713;51.912;4.494;2023-04-21T02:09:13;50.10;;;23.02;;
21110;SDS011;10713;51.912;4.494;2023-04-21T02:11:39;52.50;;;23.00;;
21110;SDS011;10713;51.912;4.494;2023-04-21T02:14:06;49.08;;;21.98;;
21110;SDS011;10713;51.912;4.494;2023-04-21T02:16:32;48.15;;;21.23;;
21110;SDS011;10713;51.912;4.494;2023-04-21T02:18:57;46.85;;;21.85;;
21110;SDS011;10713;51.912;4.494;2023-04-21T02:21:23;46.05;;;22.13;;
21110;SDS011;10713;51.912;4.494;2023-04-21T02:23:49;49.50;;;20.40;;
21110;SDS011;10713;51.912;4.494;2023-04-21T02:26:15;43.35;;;20.20;;
21110;SDS011;10713;51.912;4.494;2023-04-21T02:28:41;45.70;;;21.25;;
21110;SDS011;10713;51.912;4.494;2023-04-21T02:31:06;51.50;;;21.92;;
21110;SDS011;10713;51.912;4.494;2023-04-21T02:33:32;46.33;;;21.17;;
21110;SDS011;10713;51.912;4.494;2023-04-21T02:35:57;50.33;;;22.67;;
21110;SDS011;10713;51.912;4.494;2023-04-21T02:38:23;49.08;;;21.55;;
21110;SDS011;10713;51.912;4.494;2023-04-21T02:40:48;52.83;;;22.80;;
21110;SDS011;10713;51.912;4.494;2023-04-21T02:43:14;43.53;;;20.77;;
21110;SDS011;10713;51.912;4.494;2023-04-21T02:45:40;45.58;;;20.60;;
21110;SDS011;10713;51.912;4.494;2023-04-21T02:48:05;44.13;;;20.17;;
21110;SDS011;10713;51.912;4.494;2023-04-21T02:50:31;41.90;;;20.15;;
21110;SDS011;10713;51.912;4.494;2023-04-21T02:52:56;48.67;;;21.45;;
21110;SDS011;10713;51.912;4.494;2023-04-21T02:55:21;41.42;;;19.77;;
21110;SDS011;10713;51.912;4.494;2023-04-21T02:57:47;46.05;;;20.08;;
21110;SDS011;10713;51.912;4.494;2023-04-21T03:00:13;44.13;;;20.48;;
21110;SDS011;10713;51.912;4.494;2023-04-21T03:02:39;37.13;;;19.15;;
21110;SDS011;10713;51.912;4.494;2023-04-21T03:05:05;42.42;;;19.02;;
21110;SDS011;10713;51.912;4.494;2023-04-21T03:07:30;44.28;;;20.13;;
21110;SDS011;10713;51.912;4.494;2023-04-21T03:09:56;46.35;;;20.20;;
21110;SDS011;10713;51.912;4.494;2023-04-21T03:12:21;46.90;;;20.58;;
21110;SDS011;10713;51.912;4.494;2023-04-21T03:14:46;43.65;;;19.65;;
21110;SDS011;10713;51.912;4.494;2023-04-21T03:17:12;47.42;;;20.40;;
21110;SDS011;10713;51.912;4.494;2023-04-21T03:19:37;48.78;;;20.60;;
21110;SDS011;10713;51.912;4.494;2023-04-21T03:22:02;52.28;;;22.00;;
21110;SDS011;10713;51.912;4.494;2023-04-21T03:24:28;48.30;;;21.25;;
21110;SDS011;10713;51.912;4.494;2023-04-21T03:26:54;52.72;;;22.25;;
21110;SDS011;10713;51.912;4.494;2023-04-21T03:29:21;54.30;;;23.80;;
21110;SDS011;10713;51.912;4.494;2023-04-21T03:31:46;58.40;;;24.33;;
21110;SDS011;10713;51.912;4.494;2023-04-21T03:34:12;60.42;;;22.58;;
21110;SDS011;10713;51.912;4.494;2023-04-21T03:36:37;55.53;;;23.98;;
21110;SDS011;10713;51.912;4.494;2023-04-21T03:39:02;55.28;;;22.52;;
21110;SDS011;10713;51.912;4.494;2023-04-21T03:41:28;53.47;;;22.35;;
21110;SDS011;10713;51.912;4.494;2023-04-21T03:43:53;56.65;;;23.20;;
21110;SDS011;10713;51.912;4.494;2023-04-21T03:46:19;59.30;;;24.75;;
21110;SDS011;10713;51.912;4.494;2023-04-21T03:48:45;55.30;;;24.63;;
21110;SDS011;10713;51.912;4.494;2023-04-21T03:51:11;45.20;;;19.88;;
21110;SDS011;10713;51.912;4.494;2023-04-21T03:53:37;51.13;;;21.05;;
21110;SDS011;10713;51.912;4.494;2023-04-21T03:56:02;60.40;;;25.35;;
21110;SDS011;10713;51.912;4.494;2023-04-21T03:58:28;54.55;;;23.25;;
21110;SDS011;10713;51.912;4.494;2023-04-21T04:00:53;55.35;;;25.27;;
21110;SDS011;10713;51.912;4.494;2023-04-21T04:03:19;43.95;;;18.67;;
21110;SDS011;10713;51.912;4.494;2023-04-21T04:05:44;45.78;;;20.83;;
21110;SDS011;10713;51.912;4.494;2023-04-21T04:08:10;51.90;;;21.05;;
21110;SDS011;10713;51.912;4.494;2023-04-21T04:10:35;35.92;;;16.67;;
21110;SDS011;10713;51.912;4.494;2023-04-21T04:13:00;59.90;;;24.73;;
21110;SDS011;10713;51.912;4.494;2023-04-21T04:15:26;64.45;;;26.35;;
21110;SDS011;10713;51.912;4.494;2023-04-21T04:17:51;63.30;;;27.35;;
21110;SDS011;10713;51.912;4.494;2023-04-21T04:20:17;62.75;;;26.85;;
21110;SDS011;10713;51.912;4.494;2023-04-21T04:22:42;60.10;;;26.67;;
21110;SDS011;10713;51.912;4.494;2023-04-21T04:25:08;60.00;;;27.02;;
21110;SDS011;10713;51.912;4.494;2023-04-21T04:27:33;63.35;;;26.45;;
21110;SDS011;10713;51.912;4.494;2023-04-21T04:29:59;66.47;;;27.08;;
21110;SDS011;10713;51.912;4.494;2023-04-21T04:32:24;64.65;;;29.08;;
21110;SDS011;10713;51.912;4.494;2023-04-21T04:34:52;65.93;;;28.88;;
21110;SDS011;10713;51.912;4.494;2023-04-21T04:37:19;69.13;;;29.40;;
21110;SDS011;10713;51.912;4.494;2023-04-21T04:39:45;65.35;;;27.70;;
21110;SDS011;10713;51.912;4.494;2023-04-21T04:42:11;66.82;;;26.73;;
21110;SDS011;10713;51.912;4.494;2023-04-21T04:44:36;72.50;;;28.92;;
21110;SDS011;10713;51.912;4.494;2023-04-21T04:47:02;72.38;;;29.10;;
21110;SDS011;10713;51.912;4.494;2023-04-21T04:49:28;79.90;;;30.52;;
21110;SDS011;10713;51.912;4.494;2023-04-21T04:51:53;80.00;;;32.33;;
21110;SDS011;10713;51.912;4.494;2023-04-21T04:54:18;73.05;;;29.48;;
21110;SDS011;10713;51.912;4.494;2023-04-21T04:56:44;72.47;;;29.45;;
21110;SDS011;10713;51.912;4.494;2023-04-21T04:59:10;81.80;;;31.02;;
21110;SDS011;10713;51.912;4.494;2023-04-21T05:01:35;76.82;;;30.48;;
21110;SDS011;10713;51.912;4.494;2023-04-21T05:04:02;78.20;;;30.35;;
21110;SDS011;10713;51.912;4.494;2023-04-21T05:06:28;71.07;;;30.10;;
21110;SDS011;10713;51.912;4.494;2023-04-21T05:08:53;75.10;;;31.65;;
21110;SDS011;10713;51.912;4.494;2023-04-21T05:11:20;79.90;;;30.10;;
21110;SDS011;10713;51.912;4.494;2023-04-21T05:13:45;79.93;;;31.05;;
21110;SDS011;10713;51.912;4.494;2023-04-21T05:16:11;81.00;;;31.38;;
21110;SDS011;10713;51.912;4.494;2023-04-21T05:18:36;73.53;;;30.90;;
21110;SDS011;10713;51.912;4.494;2023-04-21T05:21:02;80.80;;;32.65;;
21110;SDS011;10713;51.912;4.494;2023-04-21T05:23:27;78.43;;;31.08;;
21110;SDS011;10713;51.912;4.494;2023-04-21T05:25:52;87.95;;;33.97;;
21110;SDS011;10713;51.912;4.494;2023-04-21T05:28:18;87.63;;;32.60;;
21110;SDS011;10713;51.912;4.494;2023-04-21T05:30:43;89.63;;;34.60;;
21110;SDS011;10713;51.912;4.494;2023-04-21T05:33:09;84.72;;;32.75;;
21110;SDS011;10713;51.912;4.494;2023-04-21T05:35:34;84.85;;;31.27;;
21110;SDS011;10713;51.912;4.494;2023-04-21T05:37:59;88.93;;;32.50;;
21110;SDS011;10713;51.912;4.494;2023-04-21T05:40:25;87.68;;;31.88;;
21110;SDS011;10713;51.912;4.494;2023-04-21T05:42:50;85.40;;;31.13;;
21110;SDS011;10713;51.912;4.494;2023-04-21T05:45:15;81.63;;;32.88;;
21110;SDS011;10713;51.912;4.494;2023-04-21T05:47:41;89.35;;;33.92;;
21110;SDS011;10713;51.912;4.494;2023-04-21T05:50:06;87.80;;;32.15;;
21110;SDS011;10713;51.912;4.494;2023-04-21T05:52:32;82.78;;;33.53;;
21110;SDS011;10713;51.912;4.494;2023-04-21T05:54:59;88.72;;;33.58;;
21110;SDS011;10713;51.912;4.494;2023-04-21T05:57:24;83.70;;;31.88;;
21110;SDS011;10713;51.912;4.494;2023-04-21T05:59:50;91.18;;;34.17;;
21110;SDS011;10713;51.912;4.494;2023-04-21T06:02:15;89.53;;;35.55;;
21110;SDS011;10713;51.912;4.494;2023-04-21T06:04:40;82.75;;;31.83;;
21110;SDS011;10713;51.912;4.494;2023-04-21T06:07:06;77.20;;;32.35;;
21110;SDS011;10713;51.912;4.494;2023-04-21T06:09:33;63.50;;;23.30;;
21110;SDS011;10713;51.912;4.494;2023-04-21T06:12:00;90.55;;;34.40;;
21110;SDS011;10713;51.912;4.494;2023-04-21T06:14:26;82.13;;;31.80;;
21110;SDS011;10713;51.912;4.494;2023-04-21T06:16:51;80.30;;;34.20;;
21110;SDS011;10713;51.912;4.494;2023-04-21T06:19:17;78.68;;;31.83;;
21110;SDS011;10713;51.912;4.494;2023-04-21T06:21:42;83.97;;;34.30;;
21110;SDS011;10713;51.912;4.494;2023-04-21T06:24:07;84.60;;;34.03;;
21110;SDS011;10713;51.912;4.494;2023-04-21T06:26:33;80.75;;;32.75;;
21110;SDS011;10713;51.912;4.494;2023-04-21T06:28:59;81.72;;;32.95;;
21110;SDS011;10713;51.912;4.494;2023-04-21T06:31:24;84.43;;;36.35;;
21110;SDS011;10713;51.912;4.494;2023-04-21T06:33:50;89.63;;;35.60;;
21110;SDS011;10713;51.912;4.494;2023-04-21T06:36:15;92.30;;;37.28;;
21110;SDS011;10713;51.912;4.494;2023-04-21T06:38:40;87.32;;;35.47;;
21110;SDS011;10713;51.912;4.494;2023-04-21T06:41:07;87.68;;;36.08;;
21110;SDS011;10713;51.912;4.494;2023-04-21T06:43:35;88.82;;;34.90;;
21110;SDS011;10713;51.912;4.494;2023-04-21T06:46:00;84.00;;;34.33;;
21110;SDS011;10713;51.912;4.494;2023-04-21T06:48:26;81.32;;;29.35;;
21110;SDS011;10713;51.912;4.494;2023-04-21T06:50:51;90.35;;;35.50;;
21110;SDS011;10713;51.912;4.494;2023-04-21T06:53:17;83.70;;;36.40;;
21110;SDS011;10713;51.912;4.494;2023-04-21T06:55:42;79.00;;;30.77;;
21110;SDS011;10713;51.912;4.494;2023-04-21T06:58:08;84.07;;;35.33;;
21110;SDS011;10713;51.912;4.494;2023-04-21T07:00:33;90.07;;;37.00;;
21110;SDS011;10713;51.912;4.494;2023-04-21T07:02:59;84.72;;;36.70;;
21110;SDS011;10713;51.912;4.494;2023-04-21T07:05:24;83.85;;;36.30;;
21110;SDS011;10713;51.912;4.494;2023-04-21T07:07:50;76.35;;;35.50;;
21110;SDS011;10713;51.912;4.494;2023-04-21T07:10:15;80.85;;;34.22;;
21110;SDS011;10713;51.912;4.494;2023-04-21T07:12:43;78.85;;;32.53;;
21110;SDS011;10713;51.912;4.494;2023-04-21T07:15:10;72.47;;;29.42;;
21110;SDS011;10713;51.912;4.494;2023-04-21T07:17:36;52.03;;;22.23;;
21110;SDS011;10713;51.912;4.494;2023-04-21T07:20:01;77.75;;;35.30;;
21110;SDS011;10713;51.912;4.494;2023-04-21T07:25:48;59.47;;;27.05;;
21110;SDS011;10713;51.912;4.494;2023-04-21T07:28:13;56.80;;;30.13;;
21110;SDS011;10713;51.912;4.494;2023-04-21T07:30:40;60.63;;;30.67;;
21110;SDS011;10713;51.912;4.494;2023-04-21T07:33:05;67.43;;;32.80;;
21110;SDS011;10713;51.912;4.494;2023-04-21T07:35:30;70.65;;;33.35;;
21110;SDS011;10713;51.912;4.494;2023-04-21T07:37:56;58.28;;;28.80;;
21110;SDS011;10713;51.912;4.494;2023-04-21T07:40:21;58.22;;;30.85;;
21110;SDS011;10713;51.912;4.494;2023-04-21T07:42:46;52.83;;;24.88;;
21110;SDS011;10713;51.912;4.494;2023-04-21T07:45:11;58.58;;;31.60;;
21110;SDS011;10713;51.912;4.494;2023-04-21T07:47:37;57.67;;;29.73;;
21110;SDS011;10713;51.912;4.494;2023-04-21T07:50:02;59.08;;;29.27;;
21110;SDS011;10713;51.912;4.494;2023-04-21T07:52:28;58.25;;;30.35;;
21110;SDS011;10713;51.912;4.494;2023-04-21T07:54:53;54.65;;;28.77;;
21110;SDS011;10713;51.912;4.494;2023-04-21T07:57:19;57.22;;;30.98;;
21110;SDS011;10713;51.912;4.494;2023-04-21T07:59:44;43.42;;;23.35;;
21110;SDS011;10713;51.912;4.494;2023-04-21T08:02:10;55.67;;;30.45;;
21110;SDS011;10713;51.912;4.494;2023-04-21T08:04:35;54.80;;;29.65;;
21110;SDS011;10713;51.912;4.494;2023-04-21T08:07:01;53.38;;;27.60;;
21110;SDS011;10713;51.912;4.494;2023-04-21T08:09:26;52.58;;;28.02;;
21110;SDS011;10713;51.912;4.494;2023-04-21T08:11:52;53.65;;;27.20;;
21110;SDS011;10713;51.912;4.494;2023-04-21T08:14:18;50.67;;;26.50;;
21110;SDS011;10713;51.912;4.494;2023-04-21T08:16:44;52.95;;;27.67;;
21110;SDS011;10713;51.912;4.494;2023-04-21T08:19:10;54.17;;;27.45;;
21110;SDS011;10713;51.912;4.494;2023-04-21T08:21:35;55.78;;;30.83;;
21110;SDS011;10713;51.912;4.494;2023-04-21T08:24:01;55.22;;;31.67;;
21110;SDS011;10713;51.912;4.494;2023-04-21T08:26:26;53.97;;;29.83;;
21110;SDS011;10713;51.912;4.494;2023-04-21T08:28:54;58.95;;;32.28;;
21110;SDS011;10713;51.912;4.494;2023-04-21T08:31:19;58.55;;;31.20;;
21110;SDS011;10713;51.912;4.494;2023-04-21T08:33:45;47.78;;;24.58;;
21110;SDS011;10713;51.912;4.494;2023-04-21T08:36:10;48.28;;;27.95;;
21110;SDS011;10713;51.912;4.494;2023-04-21T08:38:36;47.80;;;28.35;;
21110;SDS011;10713;51.912;4.494;2023-04-21T08:41:03;51.88;;;28.33;;
21110;SDS011;10713;51.912;4.494;2023-04-21T08:43:29;50.42;;;29.65;;
21110;SDS011;10713;51.912;4.494;2023-04-21T08:45:54;46.22;;;28.30;;
21110;SDS011;10713;51.912;4.494;2023-04-21T08:48:20;38.95;;;20.98;;
21110;SDS011;10713;51.912;4.494;2023-04-21T08:50:48;44.17;;;26.08;;
21110;SDS011;10713;51.912;4.494;2023-04-21T08:53:14;47.08;;;27.10;;
21110;SDS011;10713;51.912;4.494;2023-04-21T08:55:40;39.35;;;23.00;;
21110;SDS011;10713;51.912;4.494;2023-04-21T08:58:06;39.58;;;22.33;;
21110;SDS011;10713;51.912;4.494;2023-04-21T09:00:33;41.83;;;25.35;;
21110;SDS011;10713;51.912;4.494;2023-04-21T09:03:02;37.22;;;23.55;;
21110;SDS011;10713;51.912;4.494;2023-04-21T09:05:30;37.67;;;22.10;;
21110;SDS011;10713;51.912;4.494;2023-04-21T09:08:10;39.45;;;22.42;;
21110;SDS011;10713;51.912;4.494;2023-04-21T09:10:49;33.85;;;20.77;;
21110;SDS011;10713;51.912;4.494;2023-04-21T09:13:15;36.85;;;22.42;;
21110;SDS011;10713;51.912;4.494;2023-04-21T09:15:45;38.25;;;22.27;;
21110;SDS011;10713;51.912;4.494;2023-04-21T09:18:19;39.28;;;23.80;;
21110;SDS011;10713;51.912;4.494;2023-04-21T09:20:48;35.20;;;20.52;;
21110;SDS011;10713;51.912;4.494;2023-04-21T09:23:16;35.92;;;22.23;;
21110;SDS011;10713;51.912;4.494;2023-04-21T09:25:42;34.70;;;21.40;;
21110;SDS011;10713;51.912;4.494;2023-04-21T09:28:09;34.83;;;20.63;;
21110;SDS011;10713;51.912;4.494;2023-04-21T09:30:36;37.35;;;23.60;;
21110;SDS011;10713;51.912;4.494;2023-04-21T09:33:03;35.33;;;21.95;;
21110;SDS011;10713;51.912;4.494;2023-04-21T09:35:31;26.45;;;15.32;;
21110;SDS011;10713;51.912;4.494;2023-04-21T09:37:59;30.10;;;18.33;;
21110;SDS011;10713;51.912;4.494;2023-04-21T09:40:27;34.40;;;21.52;;
21110;SDS011;10713;51.912;4.494;2023-04-21T09:42:53;40.38;;;22.48;;
21110;SDS011;10713;51.912;4.494;2023-04-21T09:45:19;38.80;;;23.77;;
21110;SDS011;10713;51.912;4.494;2023-04-21T09:47:46;37.15;;;21.63;;
21110;SDS011;10713;51.912;4.494;2023-04-21T09:50:17;34.45;;;21.70;;
21110;SDS011;10713;51.912;4.494;2023-04-21T09:52:45;37.60;;;22.10;;
21110;SDS011;10713;51.912;4.494;2023-04-21T09:55:14;38.75;;;23.88;;
21110;SDS011;10713;51.912;4.494;2023-04-21T09:57:42;35.13;;;21.23;;
21110;SDS011;10713;51.912;4.494;2023-04-21T10:00:11;36.85;;;23.17;;
21110;SDS011;10713;51.912;4.494;2023-04-21T10:02:42;38.10;;;24.00;;
21110;SDS011;10713;51.912;4.494;2023-04-21T10:05:12;39.47;;;24.67;;
21110;SDS011;10713;51.912;4.494;2023-04-21T10:07:38;36.13;;;22.25;;
21110;SDS011;10713;51.912;4.494;2023-04-21T10:10:05;34.30;;;22.17;;
21110;SDS011;10713;51.912;4.494;2023-04-21T10:12:33;34.78;;;22.10;;
21110;SDS011;10713;51.912;4.494;2023-04-21T10:15:01;29.08;;;19.40;;
21110;SDS011;10713;51.912;4.494;2023-04-21T10:17:29;30.70;;;18.02;;
21110;SDS011;10713;51.912;4.494;2023-04-21T10:19:59;32.65;;;21.33;;
21110;SDS011;10713;51.912;4.494;2023-04-21T10:22:33;32.00;;;19.85;;
21110;SDS011;10713;51.912;4.494;2023-04-21T10:25:00;31.77;;;19.90;;
21110;SDS011;10713;51.912;4.494;2023-04-21T10:27:35;31.27;;;20.02;;
21110;SDS011;10713;51.912;4.494;2023-04-21T10:30:21;33.58;;;20.80;;
21110;SDS011;10713;51.912;4.494;2023-04-21T10:33:00;31.65;;;20.42;;
21110;SDS011;10713;51.912;4.494;2023-04-21T10:35:36;25.15;;;15.35;;
21110;SDS011;10713;51.912;4.494;2023-04-21T10:38:39;30.45;;;18.90;;
21110;SDS011;10713;51.912;4.494;2023-04-21T10:49:26;26.42;;;16.90;;
21110;SDS011;10713;51.912;4.494;2023-04-21T10:55:03;27.85;;;17.58;;
21110;SDS011;10713;51.912;4.494;2023-04-21T10:57:31;33.45;;;19.75;;
21110;SDS011;10713;51.912;4.494;2023-04-21T10:59:58;28.70;;;18.73;;
21110;SDS011;10713;51.912;4.494;2023-04-21T11:02:24;29.40;;;16.35;;
21110;SDS011;10713;51.912;4.494;2023-04-21T11:04:50;27.52;;;17.73;;
21110;SDS011;10713;51.912;4.494;2023-04-21T11:07:20;26.33;;;17.23;;
21110;SDS011;10713;51.912;4.494;2023-04-21T11:10:02;21.83;;;11.88;;
21110;SDS011;10713;51.912;4.494;2023-04-21T11:12:31;28.40;;;17.92;;
21110;SDS011;10713;51.912;4.494;2023-04-21T11:14:57;24.65;;;16.02;;
21110;SDS011;10713;51.912;4.494;2023-04-21T11:17:23;25.75;;;15.10;;
21110;SDS011;10713;51.912;4.494;2023-04-21T11:19:49;23.45;;;15.20;;
21110;SDS011;10713;51.912;4.494;2023-04-21T11:22:17;25.95;;;16.33;;
21110;SDS011;10713;51.912;4.494;2023-04-21T11:24:43;26.25;;;15.60;;
21110;SDS011;10713;51.912;4.494;2023-04-21T11:27:12;27.00;;;15.88;;
21110;SDS011;10713;51.912;4.494;2023-04-21T11:29:39;27.52;;;17.40;;
21110;SDS011;10713;51.912;4.494;2023-04-21T11:32:05;24.80;;;15.70;;
21110;SDS011;10713;51.912;4.494;2023-04-21T11:34:32;22.77;;;15.80;;
21110;SDS011;10713;51.912;4.494;2023-04-21T11:36:58;27.13;;;16.77;;
21110;SDS011;10713;51.912;4.494;2023-04-21T11:39:23;22.45;;;14.10;;
21110;SDS011;10713;51.912;4.494;2023-04-21T11:41:49;26.17;;;16.30;;
21110;SDS011;10713;51.912;4.494;2023-04-21T11:47:19;26.15;;;15.48;;
21110;SDS011;10713;51.912;4.494;2023-04-21T11:54:54;25.00;;;14.63;;
21110;SDS011;10713;51.912;4.494;2023-04-21T11:57:23;27.70;;;15.15;;
21110;SDS011;10713;51.912;4.494;2023-04-21T11:59:50;26.92;;;18.15;;
21110;SDS011;10713;51.912;4.494;2023-04-21T12:02:20;25.95;;;17.45;;
21110;SDS011;10713;51.912;4.494;2023-04-21T12:07:24;23.88;;;15.65;;
21110;SDS011;10713;51.912;4.494;2023-04-21T12:09:52;21.85;;;14.77;;
21110;SDS011;10713;51.912;4.494;2023-04-21T12:12:18;23.40;;;14.40;;
21110;SDS011;10713;51.912;4.494;2023-04-21T12:14:43;24.98;;;16.10;;
21110;SDS011;10713;51.912;4.494;2023-04-21T12:17:09;26.85;;;16.95;;
21110;SDS011;10713;51.912;4.494;2023-04-21T12:19:38;23.15;;;15.13;;
21110;SDS011;10713;51.912;4.494;2023-04-21T12:22:08;21.67;;;13.70;;
21110;SDS011;10713;51.912;4.494;2023-04-21T12:24:36;17.05;;;9.02;;
21110;SDS011;10713;51.912;4.494;2023-04-21T12:27:03;23.30;;;14.57;;
21110;SDS011;10713;51.912;4.494;2023-04-21T12:29:29;20.73;;;14.40;;
21110;SDS011;10713;51.912;4.494;2023-04-21T12:34:48;29.70;;;17.70;;
21110;SDS011;10713;51.912;4.494;2023-04-21T12:37:13;25.25;;;17.30;;
21110;SDS011;10713;51.912;4.494;2023-04-21T12:39:39;23.52;;;16.17;;
21110;SDS011;10713;51.912;4.494;2023-04-21T12:42:05;29.83;;;17.73;;
21110;SDS011;10713;51.912;4.494;2023-04-21T12:44:30;27.15;;;17.13;;
21110;SDS011;10713;51.912;4.494;2023-04-21T12:46:56;25.70;;;16.50;;
21110;SDS011;10713;51.912;4.494;2023-04-21T12:49:22;28.27;;;17.27;;
21110;SDS011;10713;51.912;4.494;2023-04-21T12:51:47;27.77;;;18.52;;
21110;SDS011;10713;51.912;4.494;2023-04-21T12:54:13;27.60;;;17.08;;
21110;SDS011;10713;51.912;4.494;2023-04-21T12:56:39;29.13;;;18.27;;
21110;SDS011;10713;51.912;4.494;2023-04-21T12:59:06;25.50;;;15.52;;
21110;SDS011;10713;51.912;4.494;2023-04-21T13:01:32;29.10;;;18.10;;
21110;SDS011;10713;51.912;4.494;2023-04-21T13:03:57;27.77;;;17.50;;
21110;SDS011;10713;51.912;4.494;2023-04-21T13:06:23;26.55;;;16.15;;
21110;SDS011;10713;51.912;4.494;2023-04-21T13:08:49;25.17;;;15.25;;
21110;SDS011;10713;51.912;4.494;2023-04-21T13:11:14;25.88;;;16.50;;
21110;SDS011;10713;51.912;4.494;2023-04-21T13:13:40;25.55;;;15.98;;
21110;SDS011;10713;51.912;4.494;2023-04-21T13:16:05;24.80;;;16.30;;
21110;SDS011;10713;51.912;4.494;2023-04-21T13:18:31;26.00;;;16.45;;
21110;SDS011;10713;51.912;4.494;2023-04-21T13:20:58;26.30;;;16.70;;
21110;SDS011;10713;51.912;4.494;2023-04-21T13:23:24;27.42;;;16.05;;
21110;SDS011;10713;51.912;4.494;2023-04-21T13:25:49;24.48;;;15.50;;
21110;SDS011;10713;51.912;4.494;2023-04-21T13:28:16;21.20;;;14.15;;
21110;SDS011;10713;51.912;4.494;2023-04-21T13:30:42;22.73;;;14.70;;
21110;SDS011;10713;51.912;4.494;2023-04-21T13:33:08;23.60;;;15.75;;
21110;SDS011;10713;51.912;4.494;2023-04-21T13:35:34;24.75;;;15.57;;
21110;SDS011;10713;51.912;4.494;2023-04-21T13:38:00;22.20;;;15.13;;
21110;SDS011;10713;51.912;4.494;2023-04-21T13:40:25;24.40;;;16.55;;
21110;SDS011;10713;51.912;4.494;2023-04-21T13:42:51;24.10;;;16.35;;
21110;SDS011;10713;51.912;4.494;2023-04-21T13:45:16;23.08;;;15.20;;
21110;SDS011;10713;51.912;4.494;2023-04-21T13:47:41;19.73;;;9.80;;
21110;SDS011;10713;51.912;4.494;2023-04-21T13:50:07;24.25;;;13.88;;
21110;SDS011;10713;51.912;4.494;2023-04-21T13:52:33;24.70;;;15.73;;
21110;SDS011;10713;51.912;4.494;2023-04-21T13:55:00;23.92;;;15.38;;
21110;SDS011;10713;51.912;4.494;2023-04-21T13:57:25;26.10;;;16.88;;
21110;SDS011;10713;51.912;4.494;2023-04-21T13:59:51;24.00;;;15.50;;
21110;SDS011;10713;51.912;4.494;2023-04-21T14:02:16;27.02;;;16.83;;
21110;SDS011;10713;51.912;4.494;2023-04-21T14:04:42;27.58;;;16.95;;
21110;SDS011;10713;51.912;4.494;2023-04-21T14:07:07;25.00;;;16.27;;
21110;SDS011;10713;51.912;4.494;2023-04-21T14:09:33;26.63;;;16.00;;
21110;SDS011;10713;51.912;4.494;2023-04-21T14:11:58;23.73;;;15.52;;
21110;SDS011;10713;51.912;4.494;2023-04-21T14:14:25;24.73;;;14.45;;
21110;SDS011;10713;51.912;4.494;2023-04-21T14:16:50;25.98;;;17.42;;
21110;SDS011;10713;51.912;4.494;2023-04-21T14:19:16;27.90;;;17.55;;
21110;SDS011;10713;51.912;4.494;2023-04-21T14:21:41;27.45;;;17.55;;
21110;SDS011;10713;51.912;4.494;2023-04-21T14:24:07;29.20;;;18.73;;
21110;SDS011;10713;51.912;4.494;2023-04-21T14:26:33;29.88;;;17.83;;
21110;SDS011;10713;51.912;4.494;2023-04-21T14:28:59;32.58;;;19.52;;
21110;SDS011;10713;51.912;4.494;2023-04-21T14:31:25;30.77;;;19.02;;
21110;SDS011;10713;51.912;4.494;2023-04-21T14:33:54;29.42;;;17.45;;
21110;SDS011;10713;51.912;4.494;2023-04-21T14:36:19;30.08;;;18.98;;
21110;SDS011;10713;51.912;4.494;2023-04-21T14:38:45;31.33;;;19.75;;
21110;SDS011;10713;51.912;4.494;2023-04-21T14:41:10;26.33;;;17.20;;
21110;SDS011;10713;51.912;4.494;2023-04-21T14:43:36;31.63;;;17.70;;